ADDS METAR Data INFO
IDs: Format: Raw Decoded Include TAF

Data at: 0327 UTC 16 Dec 2017

KO86 160315Z AUTO 00000KT 10SM BKN070 BKN085 05/03 A3014 RMK AO1
KO86 160255Z AUTO 00000KT 10SM CLR 04/03 A3013 RMK AO1
KO86 160235Z AUTO 00000KT 10SM CLR 05/03 A3012 RMK AO1
KO86 160215Z AUTO 00000KT 10SM CLR 05/03 A3012 RMK AO1
KO86 160155Z AUTO 00000KT 10SM CLR 05/03 A3012 RMK AO1
KO86 160135Z AUTO 00000KT 10SM CLR 06/04 A3012 RMK AO1
KO86 160115Z AUTO 00000KT 10SM FEW090 SCT120 07/04 A3012 RMK AO1
KO86 160055Z AUTO 00000KT 10SM OVC090 06/04 A3014 RMK AO1
KO86 160035Z AUTO 00000KT 10SM FEW070 BKN100 06/04 A3015 RMK AO1
KO86 160015Z AUTO 00000KT 10SM SCT070 07/04 A3014 RMK AO1
KO86 152355Z AUTO 00000KT 10SM CLR 07/04 A3013 RMK AO1
KO86 152335Z AUTO 00000KT 10SM CLR 07/04 A3012 RMK AO1
KO86 152315Z AUTO 00000KT 10SM CLR 08/04 A3013 RMK AO1
KO86 152255Z AUTO 00000KT 10SM CLR 08/03 A3013 RMK AO1
KO86 152235Z AUTO 00000KT 10SM CLR 08/02 A3013 RMK AO1
KO86 152215Z AUTO 00000KT 10SM CLR 08/02 A3013 RMK AO1
KO86 152155Z AUTO 00000KT 10SM CLR 08/02 A3013 RMK AO1
KO86 152135Z AUTO 00000KT 10SM CLR 08/02 A3013 RMK AO1
KO86 152115Z AUTO 00000KT 10SM CLR 08/02 A3015 RMK AO1
KO86 152055Z AUTO 00000KT 10SM CLR 08/02 A3015 RMK AO1
KO86 152035Z AUTO 00000KT 10SM CLR 07/03 A3017 RMK AO1
KO86 152015Z AUTO 00000KT 10SM CLR 07/03 A3018 RMK AO1
KO86 151955Z AUTO 07003KT 10SM CLR 05/03 A3019 RMK AO1
KO86 151935Z AUTO 00000KT 10SM FEW004 04/03 A3020 RMK AO1
KO86 151915Z AUTO 00000KT 10SM BKN004 04/03 A3022 RMK AO1
KO86 151855Z AUTO 00000KT 10SM OVC003 03/03 A3023 RMK AO1
KO86 151835Z AUTO 00000KT 10SM OVC003 03/02 A3025 RMK AO1
KO86 151815Z AUTO 00000KT 9SM OVC003 03/02 A3025 RMK AO1
KO86 151755Z AUTO 00000KT 3/4SM OVC003 02/02 A3025 RMK AO1
KO86 151735Z AUTO 00000KT 1/2SM OVC003 02/02 A3026 RMK AO1
KO86 151715Z AUTO 00000KT 1/4SM OVC002 02/02 A3026 RMK AO1
KO86 151655Z AUTO 00000KT 1/2SM OVC003 02/01 A3026 RMK AO1
KO86 151635Z AUTO 00000KT 1/4SM OVC002 01/00 A3026 RMK AO1
KO86 151615Z AUTO 29004KT 1/4SM OVC002 01/00 A3025 RMK AO1
KO86 151555Z AUTO 00000KT 1 3/4SM OVC002 00/00 A3025 RMK AO1 VSBY 3/4V5
KO86 151535Z AUTO 00000KT 8SM OVC002 00/00 A3025 RMK AO1
KO86 151515Z AUTO 00000KT 4SM OVC003 01/00 A3025 RMK AO1
KO86 151455Z AUTO 28003KT 2SM OVC002 00/00 A3026 RMK AO1
KO86 151435Z AUTO 28003KT 1 1/2SM OVC002 00/00 A3026 RMK AO1
KO86 151415Z AUTO 00000KT 2 1/2SM OVC002 00/00 A3026 RMK AO1
KO86 151355Z AUTO 00000KT 1 1/2SM OVC002 01/00 A3025 RMK AO1
KO86 151335Z AUTO 00000KT 1/4SM OVC002 01/00 A3025 RMK AO1
KO86 151315Z AUTO 00000KT 1/2SM OVC002 01/00 A3025 RMK AO1
KO86 151255Z AUTO 00000KT 3SM OVC002 00/00 A3026 RMK AO1
KO86 151235Z AUTO 00000KT 1 3/4SM OVC002 00/00 A3026 RMK AO1
KO86 151215Z AUTO 00000KT 2 1/2SM OVC002 00/00 A3026 RMK AO1
KO86 151155Z AUTO 00000KT 3SM OVC002 00/00 A3026 RMK AO1
KO86 151135Z AUTO 00000KT 3/4SM OVC002 00/00 A3027 RMK AO1
KO86 151115Z AUTO 00000KT 3SM OVC002 00/00 A3028 RMK AO1
KO86 151055Z AUTO 00000KT 1 1/2SM OVC003 00/00 A3028 RMK AO1 VSBY 1V2
KO86 151035Z AUTO 00000KT 3/4SM OVC002 00/00 A3028 RMK AO1
KO86 151015Z AUTO 00000KT 3SM OVC002 00/00 A3028 RMK AO1
KO86 150955Z AUTO 28003KT 2SM OVC002 00/00 A3028 RMK AO1
KO86 150935Z AUTO 26003KT 5SM OVC003 00/00 A3028 RMK AO1
KO86 150915Z AUTO 00000KT 5SM BKN004 00/00 A3028 RMK AO1
KO86 150855Z AUTO 00000KT 6SM FEW006 00/00 A3028 RMK AO1
KO86 150835Z AUTO 27003KT 3SM CLR 00/00 A3028 RMK AO1
KO86 150815Z AUTO 00000KT 1 1/4SM SCT002 00/00 A3028 RMK AO1
KO86 150755Z AUTO 00000KT 4SM BKN002 00/00 A3028 RMK AO1
KO86 150735Z AUTO 00000KT 9SM SCT003 00/00 A3027 RMK AO1
KO86 150715Z AUTO 27003KT 7SM BKN003 00/00 A3027 RMK AO1
KO86 150655Z AUTO 00000KT 8SM BKN002 00/00 A3028 RMK AO1
KO86 150635Z AUTO 00000KT 3SM SCT004 00/00 A3027 RMK AO1
KO86 150615Z AUTO 00000KT 3SM SCT005 00/00 A3027 RMK AO1
KO86 150555Z AUTO 00000KT 7SM CLR 00/00 A3026 RMK AO1
KO86 150535Z AUTO 00000KT 3SM CLR 00/00 A3026 RMK AO1
KO86 150515Z AUTO 00000KT 4SM CLR 01/00 A3025 RMK AO1
KO86 150455Z AUTO 00000KT 3SM CLR 01/00 A3025 RMK AO1
KO86 150435Z AUTO 00000KT 5SM CLR 01/01 A3025 RMK AO1
KO86 150415Z AUTO 00000KT 8SM CLR 01/00 A3024 RMK AO1
KO86 150355Z AUTO 27003KT 10SM CLR 02/01 A3024 RMK AO1
KO86 150335Z AUTO 00000KT 7SM CLR 02/02 A3023 RMK AO1
KO86 150315Z AUTO 27003KT 5SM CLR 02/02 A3023 RMK AO1
KO86 150255Z AUTO 00000KT 8SM CLR 03/02 A3023 RMK AO1
KO86 150235Z AUTO 00000KT 9SM CLR 03/03 A3023 RMK AO1
KO86 150215Z AUTO 27003KT 9SM CLR 03/03 A3022 RMK AO1
KO86 150155Z AUTO 00000KT 10SM CLR 04/03 A3022 RMK AO1
KO86 150135Z AUTO 00000KT 7SM CLR 04/03 A3021 RMK AO1
KO86 150115Z AUTO 00000KT 10SM CLR 05/04 A3021 RMK AO1
KO86 150055Z AUTO 00000KT 10SM CLR 05/04 A3020 RMK AO1
KO86 150035Z AUTO 00000KT 7SM CLR 05/04 A3019 RMK AO1
KO86 150015Z AUTO 00000KT 8SM CLR 06/04 A3018 RMK AO1
KO86 142355Z AUTO 00000KT 10SM CLR 07/04 A3018 RMK AO1
KO86 142335Z AUTO 00000KT 10SM CLR 09/04 A3018 RMK AO1
KO86 142315Z AUTO 00000KT 10SM CLR 10/03 A3018 RMK AO1
KO86 142255Z AUTO 00000KT 10SM CLR 10/03 A3018 RMK AO1
KO86 142235Z AUTO 00000KT 10SM CLR 10/03 A3018 RMK AO1
KO86 142215Z AUTO 00000KT 10SM CLR 10/05 A3019 RMK AO1
KO86 142155Z AUTO 00000KT 10SM CLR 09/04 A3019 RMK AO1
KO86 142135Z AUTO 00000KT 10SM CLR 09/03 A3019 RMK AO1
KO86 142115Z AUTO 00000KT 10SM CLR 08/03 A3020 RMK AO1
KO86 142055Z AUTO 00000KT 10SM CLR 07/03 A3021 RMK AO1
KO86 142035Z AUTO 00000KT 10SM CLR 07/04 A3022 RMK AO1
KO86 142015Z AUTO 07003KT 10SM CLR 06/04 A3023 RMK AO1
KO86 141955Z AUTO 00000KT 10SM BKN003 04/03 A3024 RMK AO1
KO86 141935Z AUTO 00000KT 3SM OVC003 03/03 A3025 RMK AO1
KO86 141915Z AUTO 00000KT 3SM OVC003 04/03 A3026 RMK AO1
KO86 141855Z AUTO 00000KT 4SM OVC003 03/03 A3026 RMK AO1
KO86 141835Z AUTO 00000KT 1 1/4SM OVC003 03/02 A3026 RMK AO1
KO86 141815Z AUTO 00000KT 1SM OVC003 02/02 A3027 RMK AO1
KO86 141755Z AUTO 00000KT M1/4SM OVC002 02/02 A3028 RMK AO1
KO86 141730Z AUTO 00000KT 1/4SM OVC002 01/01 A3028 RMK AO1
KO86 141715Z AUTO 00000KT 1/2SM OVC003 01/00 A3028 RMK AO1
KO86 141655Z AUTO 00000KT 1/2SM OVC002 00/00 A3027 RMK AO1
KO86 141635Z AUTO 28003KT 1/4SM OVC002 00/00 A3027 RMK AO1
KO86 141615Z AUTO 00000KT 1/4SM OVC002 00/00 A3026 RMK AO1
KO86 141555Z AUTO 00000KT 1 1/4SM OVC002 00/00 A3026 RMK AO1
KO86 141535Z AUTO 29003KT 1 1/4SM OVC002 00/00 A3026 RMK AO1